Sst Orleans — CFN5087 — position and weather

sailwx.info

Track history (hours):
 
Tides and Currents Weather Stations Pressure Air Temp Water Temp Dewpoint Dewpoint Depression Visibility Wind Speed Wind Dir Waves Ship Positions

Sst Orleans

Last reported at 2017-Feb-04 14:28 UTC. Time now 2017-Feb-25 13:48 UTC.
Position N 51°30' W 127°51'.
Warning: this ship's position is 20 days out of date.

Length 29 m; draft 5.1 m.

Type: . MMSI: 316012721.

Date/timePositionNaut miles runAvg speedWind from/ knotsBaromVisibWave heightAir tempDewpointWater temp
2017-Feb-04 14:28N 51°30' W 127°51'2311.7
2017-Feb-04 12:32N 51°08' W 127°54'1111.4
2017-Feb-04 11:33N 50°58' W 127°45'1212.3
2017-Feb-04 10:33N 50°51' W 127°30'1212.0
2017-Feb-04 09:32N 50°45' W 127°12'7111.6
2017-Feb-04 03:26N 50°20' W 125°28'9 9.9
2017-Feb-04 02:33N 50°13' W 125°22'8 8.2
2017-Feb-04 01:33N 50°05' W 125°17'10 9.5
2017-Feb-04 00:33N 49°57' W 125°09'1212.0
2017-Feb-03 23:33N 49°49' W 124°56'1212.0
2017-Feb-03 22:33N 49°41' W 124°41'1211.9
2017-Feb-03 21:33N 49°35' W 124°26'1211.9
2017-Feb-03 20:33N 49°29' W 124°10'1212.0
2017-Feb-03 19:33N 49°26' W 123°52'1212.2
2017-Feb-03 18:33N 49°21' W 123°35'1212.3
2017-Feb-03 17:33N 49°19' W 123°16'8 8.3
2017-Feb-03 16:33N 49°17' W 123°04'0 0.0
2017-Feb-03 15:33N 49°17' W 123°04'0 0.0
2017-Feb-03 14:33N 49°17' W 123°04'0 0.0
2017-Feb-03 13:33N 49°17' W 123°04'0 0.0
2017-Feb-03 12:33N 49°17' W 123°04'0 0.0
2017-Feb-03 11:33N 49°17' W 123°04'0 0.0
2017-Feb-03 10:33N 49°17' W 123°04'0 0.0
2017-Feb-03 09:33N 49°17' W 123°04'0 0.0
2017-Feb-03 08:33N 49°17' W 123°04'0 0.0
2017-Feb-03 07:33N 49°17' W 123°04'0 0.0
2017-Feb-03 06:33N 49°17' W 123°04'0 0.0
2017-Feb-03 05:33N 49°17' W 123°04'0 0.0
2017-Feb-03 04:33N 49°17' W 123°04'0 0.0
2017-Feb-03 03:33N 49°17' W 123°04'0 0.0
2017-Feb-03 02:33N 49°17' W 123°04'0 0.0
2017-Feb-03 01:33N 49°17' W 123°04'0 0.0
2017-Feb-03 00:33N 49°17' W 123°04'0 0.0
2017-Feb-02 23:33N 49°17' W 123°04'0 0.0
2017-Feb-02 22:33N 49°17' W 123°04'0 0.0
2017-Feb-02 21:33N 49°17' W 123°04'0 0.0
2017-Feb-02 20:33N 49°17' W 123°04'2 2.2
2017-Feb-02 19:33N 49°18' W 123°07'0 0.0
2017-Feb-02 18:33N 49°18' W 123°07'2 2.2
2017-Feb-02 17:33N 49°17' W 123°04'0 0.0
2017-Feb-02 16:33N 49°17' W 123°04'0 0.0
2017-Feb-02 15:34N 49°17' W 123°04'0 0.0
2017-Feb-02 14:33N 49°17' W 123°04'1 0.9
2017-Feb-02 13:33N 49°18' W 123°02'7 6.8
2017-Feb-02 12:33N 49°17' W 122°52'3 3.4
2017-Feb-02 11:33N 49°18' W 122°57'5 4.5
2017-Feb-02 10:33N 49°18' W 123°04'0 0.3
2017-Feb-02 09:33N 49°17' W 123°04'0 0.0
2017-Feb-02 08:33N 49°17' W 123°04'0 0.0
2017-Feb-02 07:33N 49°17' W 123°04'0 0.0
2017-Feb-02 06:33N 49°17' W 123°04'0 0.0
2017-Feb-02 05:33N 49°17' W 123°04'0 0.0
2017-Feb-02 04:33N 49°17' W 123°04'0 0.0
2017-Feb-02 03:33N 49°17' W 123°04'0 0.0
2017-Feb-02 02:33N 49°17' W 123°04'3 2.8
2017-Feb-02 01:33N 49°19' W 123°08'3 2.8
2017-Feb-02 00:33N 49°17' W 123°04'0 0.0
2017-Feb-01 23:33N 49°17' W 123°04'0 0.0
2017-Feb-01 22:33N 49°17' W 123°04'0 0.0
2017-Feb-01 21:33N 49°17' W 123°04'0 0.0
2017-Feb-01 20:33N 49°17' W 123°04'0 0.0
2017-Feb-01 19:33N 49°17' W 123°04'0 0.0
2017-Feb-01 18:33N 49°17' W 123°04'0 0.0
2017-Feb-01 17:33N 49°17' W 123°04'0 0.0
2017-Feb-01 16:33N 49°17' W 123°04'0 0.0
2017-Feb-01 15:33N 49°17' W 123°04'0 0.0
2017-Feb-01 14:33N 49°17' W 123°04'0 0.0
2017-Feb-01 12:33N 49°17' W 123°04'0 0.0
2017-Feb-01 11:33N 49°17' W 123°04'0 0.0
2017-Feb-01 10:33N 49°17' W 123°04'0 0.2
2017-Feb-01 09:33N 49°17' W 123°04'0 0.2
2017-Feb-01 08:33N 49°17' W 123°04'0 0.0
2017-Feb-01 07:33N 49°17' W 123°04'0 0.0
2017-Feb-01 06:33N 49°17' W 123°04'0 0.0
2017-Feb-01 05:33N 49°17' W 123°04'0 0.0
2017-Feb-01 04:33N 49°17' W 123°04'0 0.0
2017-Feb-01 03:33N 49°17' W 123°04'0 0.0
2017-Feb-01 02:33N 49°17' W 123°04'0 0.0
2017-Feb-01 01:33N 49°17' W 123°04'0 0.0
2017-Feb-01 00:33N 49°17' W 123°04'0 0.0
2017-Jan-31 23:33N 49°17' W 123°04'0 0.0
2017-Jan-31 22:33N 49°17' W 123°04'0 0.0
2017-Jan-31 21:33N 49°17' W 123°04'0 0.0
2017-Jan-31 20:33N 49°17' W 123°04'0 0.0
2017-Jan-31 19:33N 49°17' W 123°04'0 0.0
2017-Jan-31 18:33N 49°17' W 123°04'0 0.0
2017-Jan-31 17:33N 49°17' W 123°04'0 0.0
2017-Jan-31 16:33N 49°17' W 123°04'0 0.0
2017-Jan-31 15:34N 49°17' W 123°04'0 0.0
2017-Jan-31 14:33N 49°17' W 123°04'1 1.4
2017-Jan-31 13:33N 49°17' W 123°06'2 1.7
2017-Jan-31 12:33N 49°19' W 123°07'3 2.7
2017-Jan-31 11:33N 49°17' W 123°04'0 0.0
2017-Jan-31 10:33N 49°17' W 123°04'0 0.0
2017-Jan-31 09:33N 49°17' W 123°04'0 0.0
2017-Jan-31 08:33N 49°17' W 123°04'3 2.7
2017-Jan-31 07:33N 49°19' W 123°07'1010.1
2017-Jan-31 06:33N 49°26' W 123°17'1414.1
2017-Jan-31 05:34N 49°40' W 123°12'0 0.5
2017-Jan-31 04:32N 49°40' W 123°12'1111.3
2017-Jan-31 03:34N 49°33' W 123°23'4 4.0
2017-Jan-31 02:33N 49°31' W 123°29'7 6.6
2017-Jan-31 01:34N 49°25' W 123°24'7 7.1
2017-Jan-31 00:34N 49°20' W 123°17'9 8.7
2017-Jan-30 23:34N 49°18' W 123°04'0 0.5
2017-Jan-30 22:34N 49°17' W 123°04'0 0.0
2017-Jan-30 21:34N 49°17' W 123°04'0 0.0
2017-Jan-30 20:34N 49°17' W 123°04'1 0.8
2017-Jan-30 19:33N 49°18' W 123°04'0 0.0
2017-Jan-30 18:34N 49°18' W 123°04'0 0.0
2017-Jan-30 17:34N 49°18' W 123°04'1 0.9
2017-Jan-30 16:34N 49°17' W 123°04'0 0.0
2017-Jan-30 15:34N 49°17' W 123°04'0 0.0
2017-Jan-30 14:34N 49°17' W 123°04'0 0.0
2017-Jan-30 13:34N 49°17' W 123°04'0 0.0
2017-Jan-30 12:34N 49°17' W 123°04'0 0.0
2017-Jan-30 11:34N 49°17' W 123°04'0 0.0
2017-Jan-30 10:34N 49°17' W 123°04'0 0.0
2017-Jan-30 09:33N 49°17' W 123°04'0 0.0
2017-Jan-30 08:34N 49°17' W 123°04'0 0.0
2017-Jan-30 07:34N 49°17' W 123°04'0 0.0
2017-Jan-30 06:34N 49°17' W 123°04'0 0.0
2017-Jan-30 05:34N 49°17' W 123°04'0 0.0
2017-Jan-30 04:34N 49°17' W 123°04'0 0.0
2017-Jan-30 03:33N 49°17' W 123°04'0 0.0
2017-Jan-30 02:34N 49°17' W 123°04'0 0.0
2017-Jan-30 01:34N 49°17' W 123°04'0 0.0
2017-Jan-30 00:34N 49°17' W 123°04'0 0.0
2017-Jan-29 23:34N 49°17' W 123°04'0 0.0
2017-Jan-29 22:34N 49°17' W 123°04'0 0.0
2017-Jan-29 21:34N 49°17' W 123°04'0 0.0
2017-Jan-29 20:33N 49°17' W 123°04'0 0.0
2017-Jan-29 19:34N 49°17' W 123°04'0 0.0
2017-Jan-29 18:34N 49°17' W 123°04'0 0.0
2017-Jan-29 17:34N 49°17' W 123°04'0 0.0
2017-Jan-29 16:34N 49°17' W 123°04'0 0.0
2017-Jan-29 15:34N 49°17' W 123°04'0 0.0
2017-Jan-29 14:34N 49°17' W 123°04'0 0.0
2017-Jan-29 13:34N 49°17' W 123°04'0 0.0
2017-Jan-29 12:34N 49°17' W 123°04'0 0.0
2017-Jan-29 11:34N 49°17' W 123°04'0 0.0
2017-Jan-29 10:34N 49°17' W 123°04'0 0.0
2017-Jan-29 09:34N 49°17' W 123°04'0 0.0
2017-Jan-29 08:34N 49°17' W 123°04'0 0.0
2017-Jan-29 07:34N 49°17' W 123°04'0 0.0
2017-Jan-29 06:34N 49°17' W 123°04'0 0.0
2017-Jan-29 05:34N 49°17' W 123°04'0 0.0
2017-Jan-29 04:34N 49°17' W 123°04'0 0.0
2017-Jan-29 03:34N 49°17' W 123°04'0 0.0
2017-Jan-29 02:34N 49°17' W 123°04'0 0.0
2017-Jan-29 01:33N 49°17' W 123°04'0 0.0
2017-Jan-29 00:34N 49°17' W 123°04'0 0.0
2017-Jan-28 23:34N 49°17' W 123°04'0 0.0
2017-Jan-28 22:34N 49°17' W 123°04'0 0.0
2017-Jan-28 21:34N 49°17' W 123°04'0 0.0
2017-Jan-28 20:34N 49°17' W 123°04'0 0.0
2017-Jan-28 19:34N 49°17' W 123°04'0 0.0
2017-Jan-28 18:34N 49°17' W 123°04'0 0.0
2017-Jan-28 17:34N 49°17' W 123°04'0 0.0
2017-Jan-28 16:34N 49°17' W 123°04'0 0.0
2017-Jan-28 15:34N 49°17' W 123°04'0 0.0
2017-Jan-28 14:34N 49°17' W 123°04'0 0.0
2017-Jan-28 13:33N 49°17' W 123°04'0 0.0
2017-Jan-28 12:34N 49°17' W 123°04'3 2.6
2017-Jan-28 11:33N 49°18' W 123°07'10 9.5
2017-Jan-28 10:33N 49°13' W 123°19'1111.3
2017-Jan-28 09:33N 49°01' W 123°19'1010.3
2017-Jan-28 08:34N 48°51' W 123°21'1211.5
2017-Jan-28 07:33N 48°40' W 123°15'1010.2
2017-Jan-28 06:33N 48°30' W 123°11'9 8.6
2017-Jan-28 05:34N 48°23' W 123°16'8 7.8
2017-Jan-28 04:33N 48°20' W 123°27'8 8.1
2017-Jan-28 03:34N 48°23' W 123°16'1110.6
2017-Jan-28 02:33N 48°34' W 123°13'9 9.4
2017-Jan-28 01:33N 48°43' W 123°12'9 9.1
2017-Jan-28 00:33N 48°50' W 123°02'1111.0
2017-Jan-27 23:33N 48°57' W 123°14'1111.2
2017-Jan-27 22:34N 49°06' W 123°23'1211.9
2017-Jan-27 21:34N 49°18' W 123°18'8 7.7
2017-Jan-27 20:33N 49°18' W 123°07'5 5.4
2017-Jan-27 19:33N 49°18' W 122°58'3 2.9
2017-Jan-27 18:33N 49°17' W 122°54'0 0.3
2017-Jan-27 17:33N 49°18' W 122°54'6 6.0
2017-Jan-27 16:34N 49°17' W 123°04'0 0.0
2017-Jan-27 15:34N 49°17' W 123°04'0 0.0
2017-Jan-27 14:33N 49°17' W 123°04'0 0.0
2017-Jan-27 13:33N 49°17' W 123°04'0 0.0
2017-Jan-27 12:33N 49°17' W 123°04'0 0.0
2017-Jan-27 11:33N 49°17' W 123°04'0 0.0
2017-Jan-27 10:33N 49°17' W 123°04'0 0.0
2017-Jan-27 09:33N 49°17' W 123°04'0 0.0
2017-Jan-27 08:33N 49°17' W 123°04'0 0.0
2017-Jan-27 07:33N 49°17' W 123°04'0 0.0
2017-Jan-27 06:34N 49°17' W 123°04'0 0.0
2017-Jan-27 05:34N 49°17' W 123°04'0 0.0
2017-Jan-27 04:33N 49°17' W 123°04'0 0.0
2017-Jan-27 03:33N 49°17' W 123°04'0 0.0
2017-Jan-27 02:33N 49°17' W 123°04'0 0.0
2017-Jan-27 01:33N 49°17' W 123°04'0 0.2
2017-Jan-27 00:33N 49°17' W 123°04'2 2.0
2017-Jan-26 23:33N 49°18' W 123°07'1 0.8
2017-Jan-26 22:34N 49°18' W 123°07'0 0.0
2017-Jan-26 21:33N 49°19' W 123°07'0 0.0
2017-Jan-26 20:33N 49°19' W 123°07'1 1.1
2017-Jan-26 19:34N 49°18' W 123°06'1 1.5
2017-Jan-26 18:34N 49°17' W 123°04'0 0.0
2017-Jan-26 17:33N 49°17' W 123°04'0 0.0
2017-Jan-26 16:33N 49°17' W 123°04'0 0.0
2017-Jan-26 15:33N 49°17' W 123°04'0 0.0
2017-Jan-26 14:33N 49°17' W 123°04'0 0.0
2017-Jan-26 13:33N 49°17' W 123°04'0 0.0
2017-Jan-26 12:33N 49°17' W 123°04'0 0.0
2017-Jan-26 11:33N 49°17' W 123°04'0 0.0
2017-Jan-26 10:34N 49°17' W 123°04'0 0.0
2017-Jan-26 09:33N 49°17' W 123°04'0 0.0
2017-Jan-26 08:33N 49°17' W 123°04'0 0.0
2017-Jan-26 07:34N 49°17' W 123°04'3 3.5
2017-Jan-26 06:33N 49°18' W 122°58'4 4.1
2017-Jan-26 05:33N 49°17' W 122°52'7 7.0
2017-Jan-26 04:33N 49°18' W 123°03'1 0.6
2017-Jan-26 03:34N 49°17' W 123°04'0 0.0
2017-Jan-26 02:33N 49°17' W 123°04'0 0.0
2017-Jan-26 01:34N 49°17' W 123°04'0 0.0
2017-Jan-26 00:33N 49°17' W 123°04'0 0.0
2017-Jan-25 23:34N 49°17' W 123°04'1 1.4
2017-Jan-25 22:33N 49°17' W 123°06'2 1.7
2017-Jan-25 21:33N 49°19' W 123°08'3 2.8
2017-Jan-25 20:33N 49°17' W 123°04'0 0.0
2017-Jan-25 19:33N 49°17' W 123°04'0 0.0
2017-Jan-25 18:34N 49°17' W 123°04'0 0.0
2017-Jan-25 17:33N 49°17' W 123°04'0 0.0
2017-Jan-25 16:33N 49°17' W 123°04'6 6.4
2017-Jan-25 15:33N 49°17' W 122°54'0 0.4
2017-Jan-25 14:33N 49°17' W 122°54'  
Track history (hours):
 
Tides and Currents Weather Stations Pressure Air Temp Water Temp Dewpoint Dewpoint Depression Visibility Wind Speed Wind Dir Waves Ship Positions

Sst Orleans

Last reported at 2017-Feb-04 14:28 UTC. Time now 2017-Feb-25 13:48 UTC.
Position N 51°30' W 127°51'.
Warning: this ship's position is 20 days out of date.

Length 29 m; draft 5.1 m.

Type: . MMSI: 316012721.

Date/timePositionNaut miles runAvg speedWind from/ knotsBaromVisibWave heightAir tempDewpointWater temp
2017-Feb-04 14:28N 51°30' W 127°51'2311.7
2017-Feb-04 12:32N 51°08' W 127°54'1111.4
2017-Feb-04 11:33N 50°58' W 127°45'1212.3
2017-Feb-04 10:33N 50°51' W 127°30'1212.0
2017-Feb-04 09:32N 50°45' W 127°12'7111.6
2017-Feb-04 03:26N 50°20' W 125°28'9 9.9
2017-Feb-04 02:33N 50°13' W 125°22'8 8.2
2017-Feb-04 01:33N 50°05' W 125°17'10 9.5
2017-Feb-04 00:33N 49°57' W 125°09'1212.0
2017-Feb-03 23:33N 49°49' W 124°56'1212.0
2017-Feb-03 22:33N 49°41' W 124°41'1211.9
2017-Feb-03 21:33N 49°35' W 124°26'1211.9
2017-Feb-03 20:33N 49°29' W 124°10'1212.0
2017-Feb-03 19:33N 49°26' W 123°52'1212.2
2017-Feb-03 18:33N 49°21' W 123°35'1212.3
2017-Feb-03 17:33N 49°19' W 123°16'8 8.3
2017-Feb-03 16:33N 49°17' W 123°04'0 0.0
2017-Feb-03 15:33N 49°17' W 123°04'0 0.0
2017-Feb-03 14:33N 49°17' W 123°04'0 0.0
2017-Feb-03 13:33N 49°17' W 123°04'0 0.0
2017-Feb-03 12:33N 49°17' W 123°04'0 0.0
2017-Feb-03 11:33N 49°17' W 123°04'0 0.0
2017-Feb-03 10:33N 49°17' W 123°04'0 0.0
2017-Feb-03 09:33N 49°17' W 123°04'0 0.0
2017-Feb-03 08:33N 49°17' W 123°04'0 0.0
2017-Feb-03 07:33N 49°17' W 123°04'0 0.0
2017-Feb-03 06:33N 49°17' W 123°04'0 0.0
2017-Feb-03 05:33N 49°17' W 123°04'0 0.0
2017-Feb-03 04:33N 49°17' W 123°04'0 0.0
2017-Feb-03 03:33N 49°17' W 123°04'0 0.0
2017-Feb-03 02:33N 49°17' W 123°04'0 0.0
2017-Feb-03 01:33N 49°17' W 123°04'0 0.0
2017-Feb-03 00:33N 49°17' W 123°04'0 0.0
2017-Feb-02 23:33N 49°17' W 123°04'0 0.0
2017-Feb-02 22:33N 49°17' W 123°04'0 0.0
2017-Feb-02 21:33N 49°17' W 123°04'0 0.0
2017-Feb-02 20:33N 49°17' W 123°04'2 2.2
2017-Feb-02 19:33N 49°18' W 123°07'0 0.0
2017-Feb-02 18:33N 49°18' W 123°07'2 2.2
2017-Feb-02 17:33N 49°17' W 123°04'0 0.0
2017-Feb-02 16:33N 49°17' W 123°04'0 0.0
2017-Feb-02 15:34N 49°17' W 123°04'0 0.0
2017-Feb-02 14:33N 49°17' W 123°04'1 0.9
2017-Feb-02 13:33N 49°18' W 123°02'7 6.8
2017-Feb-02 12:33N 49°17' W 122°52'3 3.4
2017-Feb-02 11:33N 49°18' W 122°57'5 4.5
2017-Feb-02 10:33N 49°18' W 123°04'0 0.3
2017-Feb-02 09:33N 49°17' W 123°04'0 0.0
2017-Feb-02 08:33N 49°17' W 123°04'0 0.0
2017-Feb-02 07:33N 49°17' W 123°04'0 0.0
2017-Feb-02 06:33N 49°17' W 123°04'0 0.0
2017-Feb-02 05:33N 49°17' W 123°04'0 0.0
2017-Feb-02 04:33N 49°17' W 123°04'0 0.0
2017-Feb-02 03:33N 49°17' W 123°04'0 0.0
2017-Feb-02 02:33N 49°17' W 123°04'3 2.8
2017-Feb-02 01:33N 49°19' W 123°08'3 2.8
2017-Feb-02 00:33N 49°17' W 123°04'0 0.0
2017-Feb-01 23:33N 49°17' W 123°04'0 0.0
2017-Feb-01 22:33N 49°17' W 123°04'0 0.0
2017-Feb-01 21:33N 49°17' W 123°04'0 0.0
2017-Feb-01 20:33N 49°17' W 123°04'0 0.0
2017-Feb-01 19:33N 49°17' W 123°04'0 0.0
2017-Feb-01 18:33N 49°17' W 123°04'0 0.0
2017-Feb-01 17:33N 49°17' W 123°04'0 0.0
2017-Feb-01 16:33N 49°17' W 123°04'0 0.0
2017-Feb-01 15:33N 49°17' W 123°04'0 0.0
2017-Feb-01 14:33N 49°17' W 123°04'0 0.0
2017-Feb-01 12:33N 49°17' W 123°04'0 0.0
2017-Feb-01 11:33N 49°17' W 123°04'0 0.0
2017-Feb-01 10:33N 49°17' W 123°04'0 0.2
2017-Feb-01 09:33N 49°17' W 123°04'0 0.2
2017-Feb-01 08:33N 49°17' W 123°04'0 0.0
2017-Feb-01 07:33N 49°17' W 123°04'0 0.0
2017-Feb-01 06:33N 49°17' W 123°04'0 0.0
2017-Feb-01 05:33N 49°17' W 123°04'0 0.0
2017-Feb-01 04:33N 49°17' W 123°04'0 0.0
2017-Feb-01 03:33N 49°17' W 123°04'0 0.0
2017-Feb-01 02:33N 49°17' W 123°04'0 0.0
2017-Feb-01 01:33N 49°17' W 123°04'0 0.0
2017-Feb-01 00:33N 49°17' W 123°04'0 0.0
2017-Jan-31 23:33N 49°17' W 123°04'0 0.0
2017-Jan-31 22:33N 49°17' W 123°04'0 0.0
2017-Jan-31 21:33N 49°17' W 123°04'0 0.0
2017-Jan-31 20:33N 49°17' W 123°04'0 0.0
2017-Jan-31 19:33N 49°17' W 123°04'0 0.0
2017-Jan-31 18:33N 49°17' W 123°04'0 0.0
2017-Jan-31 17:33N 49°17' W 123°04'0 0.0
2017-Jan-31 16:33N 49°17' W 123°04'0 0.0
2017-Jan-31 15:34N 49°17' W 123°04'0 0.0
2017-Jan-31 14:33N 49°17' W 123°04'1 1.4
2017-Jan-31 13:33N 49°17' W 123°06'2 1.7
2017-Jan-31 12:33N 49°19' W 123°07'3 2.7
2017-Jan-31 11:33N 49°17' W 123°04'0 0.0
2017-Jan-31 10:33N 49°17' W 123°04'0 0.0
2017-Jan-31 09:33N 49°17' W 123°04'0 0.0
2017-Jan-31 08:33N 49°17' W 123°04'3 2.7
2017-Jan-31 07:33N 49°19' W 123°07'1010.1
2017-Jan-31 06:33N 49°26' W 123°17'1414.1
2017-Jan-31 05:34N 49°40' W 123°12'0 0.5
2017-Jan-31 04:32N 49°40' W 123°12'1111.3
2017-Jan-31 03:34N 49°33' W 123°23'4 4.0
2017-Jan-31 02:33N 49°31' W 123°29'7 6.6
2017-Jan-31 01:34N 49°25' W 123°24'7 7.1
2017-Jan-31 00:34N 49°20' W 123°17'9 8.7
2017-Jan-30 23:34N 49°18' W 123°04'0 0.5
2017-Jan-30 22:34N 49°17' W 123°04'0 0.0
2017-Jan-30 21:34N 49°17' W 123°04'0 0.0
2017-Jan-30 20:34N 49°17' W 123°04'1 0.8
2017-Jan-30 19:33N 49°18' W 123°04'0 0.0
2017-Jan-30 18:34N 49°18' W 123°04'0 0.0
2017-Jan-30 17:34N 49°18' W 123°04'1 0.9
2017-Jan-30 16:34N 49°17' W 123°04'0 0.0
2017-Jan-30 15:34N 49°17' W 123°04'0 0.0
2017-Jan-30 14:34N 49°17' W 123°04'0 0.0
2017-Jan-30 13:34N 49°17' W 123°04'0 0.0
2017-Jan-30 12:34N 49°17' W 123°04'0 0.0
2017-Jan-30 11:34N 49°17' W 123°04'0 0.0
2017-Jan-30 10:34N 49°17' W 123°04'0 0.0
2017-Jan-30 09:33N 49°17' W 123°04'0 0.0
2017-Jan-30 08:34N 49°17' W 123°04'0 0.0
2017-Jan-30 07:34N 49°17' W 123°04'0 0.0
2017-Jan-30 06:34N 49°17' W 123°04'0 0.0
2017-Jan-30 05:34N 49°17' W 123°04'0 0.0
2017-Jan-30 04:34N 49°17' W 123°04'0 0.0
2017-Jan-30 03:33N 49°17' W 123°04'0 0.0
2017-Jan-30 02:34N 49°17' W 123°04'0 0.0
2017-Jan-30 01:34N 49°17' W 123°04'0 0.0
2017-Jan-30 00:34N 49°17' W 123°04'0 0.0
2017-Jan-29 23:34N 49°17' W 123°04'0 0.0
2017-Jan-29 22:34N 49°17' W 123°04'0 0.0
2017-Jan-29 21:34N 49°17' W 123°04'0 0.0
2017-Jan-29 20:33N 49°17' W 123°04'0 0.0
2017-Jan-29 19:34N 49°17' W 123°04'0 0.0
2017-Jan-29 18:34N 49°17' W 123°04'0 0.0
2017-Jan-29 17:34N 49°17' W 123°04'0 0.0
2017-Jan-29 16:34N 49°17' W 123°04'0 0.0
2017-Jan-29 15:34N 49°17' W 123°04'0 0.0
2017-Jan-29 14:34N 49°17' W 123°04'0 0.0
2017-Jan-29 13:34N 49°17' W 123°04'0 0.0
2017-Jan-29 12:34N 49°17' W 123°04'0 0.0
2017-Jan-29 11:34N 49°17' W 123°04'0 0.0
2017-Jan-29 10:34N 49°17' W 123°04'0 0.0
2017-Jan-29 09:34N 49°17' W 123°04'0 0.0
2017-Jan-29 08:34N 49°17' W 123°04'0 0.0
2017-Jan-29 07:34N 49°17' W 123°04'0 0.0
2017-Jan-29 06:34N 49°17' W 123°04'0 0.0
2017-Jan-29 05:34N 49°17' W 123°04'0 0.0
2017-Jan-29 04:34N 49°17' W 123°04'0 0.0
2017-Jan-29 03:34N 49°17' W 123°04'0 0.0
2017-Jan-29 02:34N 49°17' W 123°04'0 0.0
2017-Jan-29 01:33N 49°17' W 123°04'0 0.0
2017-Jan-29 00:34N 49°17' W 123°04'0 0.0
2017-Jan-28 23:34N 49°17' W 123°04'0 0.0
2017-Jan-28 22:34N 49°17' W 123°04'0 0.0
2017-Jan-28 21:34N 49°17' W 123°04'0 0.0
2017-Jan-28 20:34N 49°17' W 123°04'0 0.0
2017-Jan-28 19:34N 49°17' W 123°04'0 0.0
2017-Jan-28 18:34N 49°17' W 123°04'0 0.0
2017-Jan-28 17:34N 49°17' W 123°04'0 0.0
2017-Jan-28 16:34N 49°17' W 123°04'0 0.0
2017-Jan-28 15:34N 49°17' W 123°04'0 0.0
2017-Jan-28 14:34N 49°17' W 123°04'0 0.0
2017-Jan-28 13:33N 49°17' W 123°04'0 0.0
2017-Jan-28 12:34N 49°17' W 123°04'3 2.6
2017-Jan-28 11:33N 49°18' W 123°07'10 9.5
2017-Jan-28 10:33N 49°13' W 123°19'1111.3
2017-Jan-28 09:33N 49°01' W 123°19'1010.3
2017-Jan-28 08:34N 48°51' W 123°21'1211.5
2017-Jan-28 07:33N 48°40' W 123°15'1010.2
2017-Jan-28 06:33N 48°30' W 123°11'9 8.6
2017-Jan-28 05:34N 48°23' W 123°16'8 7.8
2017-Jan-28 04:33N 48°20' W 123°27'8 8.1
2017-Jan-28 03:34N 48°23' W 123°16'1110.6
2017-Jan-28 02:33N 48°34' W 123°13'9 9.4
2017-Jan-28 01:33N 48°43' W 123°12'9 9.1
2017-Jan-28 00:33N 48°50' W 123°02'1111.0
2017-Jan-27 23:33N 48°57' W 123°14'1111.2
2017-Jan-27 22:34N 49°06' W 123°23'1211.9
2017-Jan-27 21:34N 49°18' W 123°18'8 7.7
2017-Jan-27 20:33N 49°18' W 123°07'5 5.4
2017-Jan-27 19:33N 49°18' W 122°58'3 2.9
2017-Jan-27 18:33N 49°17' W 122°54'0 0.3
2017-Jan-27 17:33N 49°18' W 122°54'6 6.0
2017-Jan-27 16:34N 49°17' W 123°04'0 0.0
2017-Jan-27 15:34N 49°17' W 123°04'0 0.0
2017-Jan-27 14:33N 49°17' W 123°04'0 0.0
2017-Jan-27 13:33N 49°17' W 123°04'0 0.0
2017-Jan-27 12:33N 49°17' W 123°04'0 0.0
2017-Jan-27 11:33N 49°17' W 123°04'0 0.0
2017-Jan-27 10:33N 49°17' W 123°04'0 0.0
2017-Jan-27 09:33N 49°17' W 123°04'0 0.0
2017-Jan-27 08:33N 49°17' W 123°04'0 0.0
2017-Jan-27 07:33N 49°17' W 123°04'0 0.0
2017-Jan-27 06:34N 49°17' W 123°04'0 0.0
2017-Jan-27 05:34N 49°17' W 123°04'0 0.0
2017-Jan-27 04:33N 49°17' W 123°04'0 0.0
2017-Jan-27 03:33N 49°17' W 123°04'0 0.0
2017-Jan-27 02:33N 49°17' W 123°04'0 0.0
2017-Jan-27 01:33N 49°17' W 123°04'0 0.2
2017-Jan-27 00:33N 49°17' W 123°04'2 2.0
2017-Jan-26 23:33N 49°18' W 123°07'1 0.8
2017-Jan-26 22:34N 49°18' W 123°07'0 0.0
2017-Jan-26 21:33N 49°19' W 123°07'0 0.0
2017-Jan-26 20:33N 49°19' W 123°07'1 1.1
2017-Jan-26 19:34N 49°18' W 123°06'1 1.5
2017-Jan-26 18:34N 49°17' W 123°04'0 0.0
2017-Jan-26 17:33N 49°17' W 123°04'0 0.0
2017-Jan-26 16:33N 49°17' W 123°04'0 0.0
2017-Jan-26 15:33N 49°17' W 123°04'0 0.0
2017-Jan-26 14:33N 49°17' W 123°04'0 0.0
2017-Jan-26 13:33N 49°17' W 123°04'0 0.0
2017-Jan-26 12:33N 49°17' W 123°04'0 0.0
2017-Jan-26 11:33N 49°17' W 123°04'0 0.0
2017-Jan-26 10:34N 49°17' W 123°04'0 0.0
2017-Jan-26 09:33N 49°17' W 123°04'0 0.0
2017-Jan-26 08:33N 49°17' W 123°04'0 0.0
2017-Jan-26 07:34N 49°17' W 123°04'3 3.5
2017-Jan-26 06:33N 49°18' W 122°58'4 4.1
2017-Jan-26 05:33N 49°17' W 122°52'7 7.0
2017-Jan-26 04:33N 49°18' W 123°03'1 0.6
2017-Jan-26 03:34N 49°17' W 123°04'0 0.0
2017-Jan-26 02:33N 49°17' W 123°04'0 0.0
2017-Jan-26 01:34N 49°17' W 123°04'0 0.0
2017-Jan-26 00:33N 49°17' W 123°04'0 0.0
2017-Jan-25 23:34N 49°17' W 123°04'1 1.4
2017-Jan-25 22:33N 49°17' W 123°06'2 1.7
2017-Jan-25 21:33N 49°19' W 123°08'3 2.8
2017-Jan-25 20:33N 49°17' W 123°04'0 0.0
2017-Jan-25 19:33N 49°17' W 123°04'0 0.0
2017-Jan-25 18:34N 49°17' W 123°04'0 0.0
2017-Jan-25 17:33N 49°17' W 123°04'0 0.0
2017-Jan-25 16:33N 49°17' W 123°04'6 6.4
2017-Jan-25 15:33N 49°17' W 122°54'0 0.4
2017-Jan-25 14:33N 49°17' W 122°54'  

Dump ship's entire track history